International Virtual Aviation Organisation

Eastern Europe and Northern Asia MCD

 
UHBB 121200Z 02002MPS 9999 SCT033CB M05/M14 Q1015 R36/990337 NOSIG RMK QFE744/0992
QNH:(hPa/inHg/mmHg)1015 / 29.97 / 761
QFE:(hPa/inHg/mmHg)991 / 29.27 / 744
Temperature-5
Dew Point-14
Visibility> 10000
Weather
Cloud CoverSCT (3300);
Transition Height900 m./3600 ft.
Transition LevelFL50
SQUAWK